Terminal Aerodrome Forecast
Issued by NWS

Home | Current Version | Previous Version | Text Only | Print | Product List | Glossary On
Versions: 1 2 3 4 5 6 7 8 9 10 11 12 13 14 15 16 17 18 19 20 21 22 23 24 25 26 27
000
FTUS43 KDVN 080352 AAA
TAFBRL
TAF AMD
KBRL 080352Z 0804/0824 02006KT P6SM SKC
     FM081200 07005KT 6SM BR BKN150
     FM081500 09006KT 6SM BR VCSH BKN060 OVC150
     FM081900 10005KT 4SM -SHRA OVC025=

USA.gov is the U.S. government's official web portal to all federal, state and local government web resources and services.